Terminal Aerodrome Forecast
Issued by NWS Salt Lake City, UT

Home | Current Version | Previous Version | Text Only | Print | Product List | Glossary On
Versions: 1 2 3 4 5 6 7 8 9 10 11 12 13
000
FTUS45 KSLC 101744
TAFCDC
TAF
KCDC 101744Z 1018/1118 21015G25KT P6SM SCT080 BKN150
     FM110200 20010KT P6SM SCT050 BKN070
     FM111500 20008KT P6SM SCT070=

USA.gov is the U.S. government's official web portal to all federal, state and local government web resources and services.